Time;durP1;ratioP1;P1;durP2;ratioP2;P2;SDS_P1;SDS_P2;PMS_P1;PMS_P2;Temp;Humidity;BMP_temperature;BMP_pressure;BME280_temperature;BME280_humidity;BME280_pressure;Samples;Min_cycle;Max_cycle;Signal;HPM_P1;HPM_P2
2023/05/29 00:01:13;;;;;;;8.73;2.50;;;12.70;99.90;;;;;;5057156;28;20016;-84
2023/05/29 00:03:38;;;;;;;9.77;2.55;;;12.60;99.90;;;;;;5062039;28;20470;-85
2023/05/29 00:06:05;;;;;;;9.57;2.30;;;12.60;99.90;;;;;;5061340;28;20546;-86
2023/05/29 00:08:31;;;;;;;10.43;2.38;;;12.60;99.90;;;;;;5057941;28;20024;-86
2023/05/29 00:10:57;;;;;;;7.15;2.00;;;12.50;99.90;;;;;;5055910;28;20436;-85
2023/05/29 00:13:23;;;;;;;9.48;2.42;;;12.50;99.90;;;;;;5072780;28;20032;-85
2023/05/29 00:15:48;;;;;;;9.95;2.50;;;12.40;99.90;;;;;;5072363;28;20123;-86
2023/05/29 00:18:14;;;;;;;11.73;2.92;;;12.40;99.90;;;;;;5076542;28;20112;-86
2023/05/29 00:20:40;;;;;;;11.07;2.30;;;12.40;99.90;;;;;;5066480;28;20048;-86
2023/05/29 00:23:06;;;;;;;13.82;3.60;;;12.30;99.90;;;;;;5065203;28;20045;-85
2023/05/29 00:25:32;;;;;;;8.57;2.25;;;12.30;99.90;;;;;;5076803;28;20024;-84
2023/05/29 00:27:57;;;;;;;9.27;2.35;;;12.20;99.90;;;;;;5059950;28;20528;-85
2023/05/29 00:30:23;;;;;;;8.90;2.55;;;12.20;99.90;;;;;;5066380;28;20575;-85
2023/05/29 00:32:49;;;;;;;12.02;2.33;;;12.20;99.90;;;;;;5074783;28;20478;-86
2023/05/29 00:35:14;;;;;;;9.13;2.10;;;12.10;99.90;;;;;;5065762;28;20028;-86
2023/05/29 00:37:40;;;;;;;8.10;2.20;;;12.10;99.90;;;;;;5076297;28;20024;-85
2023/05/29 00:40:06;;;;;;;10.70;2.70;;;12.10;99.90;;;;;;5065279;28;20039;-85
2023/05/29 00:42:32;;;;;;;9.57;2.45;;;12.00;99.90;;;;;;5076240;28;20590;-85
2023/05/29 00:44:57;;;;;;;11.20;2.22;;;12.00;99.90;;;;;;5075827;28;20099;-85
2023/05/29 00:47:23;;;;;;;9.30;2.47;;;12.00;99.90;;;;;;5063808;28;20190;-86
2023/05/29 00:49:51;;;;;;;6.55;1.65;;;11.90;99.90;;;;;;5059300;28;20032;-85
2023/05/29 00:52:17;;;;;;;9.02;1.90;;;11.90;99.90;;;;;;5063561;28;20024;-85
2023/05/29 00:54:45;;;;;;;9.68;1.90;;;11.90;99.90;;;;;;5076111;28;20036;-84
2023/05/29 00:57:13;;;;;;;7.53;2.45;;;11.90;99.90;;;;;;5076312;28;20013;-85
2023/05/29 00:59:40;;;;;;;8.07;1.70;;;11.90;99.90;;;;;;5061342;28;20071;-85
2023/05/29 01:02:06;;;;;;;7.95;1.65;;;11.80;99.90;;;;;;5064290;28;20016;-85
2023/05/29 01:04:33;;;;;;;8.65;1.85;;;11.80;99.90;;;;;;5074937;28;20421;-86
2023/05/29 01:07:03;;;;;;;9.60;1.85;;;11.70;99.90;;;;;;5063586;28;20031;-85
2023/05/29 01:09:30;;;;;;;7.95;1.70;;;11.70;99.90;;;;;;5072437;28;20043;-85
2023/05/29 01:12:18;;;;;;;7.85;1.83;;;11.70;99.90;;;;;;5074334;28;20025;-85
2023/05/29 01:15:12;;;;;;;5.20;1.48;;;11.70;99.90;;;;;;5076246;28;20108;-85
2023/05/29 01:17:43;;;;;;;8.88;1.70;;;11.70;99.90;;;;;;5059953;28;20035;-85
2023/05/29 01:20:19;;;;;;;7.05;1.73;;;11.60;99.90;;;;;;5058257;28;20731;-85
2023/05/29 01:23:21;;;;;;;7.25;1.65;;;11.60;99.90;;;;;;5074447;28;20139;-85
2023/05/29 01:26:12;;;;;;;9.15;2.10;;;11.60;99.90;;;;;;5074662;28;20385;-84
2023/05/29 01:28:45;;;;;;;8.77;1.70;;;11.60;99.90;;;;;;5076699;28;20612;-85
2023/05/29 01:31:12;;;;;;;9.45;2.10;;;11.50;99.90;;;;;;5059776;28;20024;-85
2023/05/29 01:33:41;;;;;;;10.05;1.77;;;11.50;99.90;;;;;;5064552;28;20089;-85
2023/05/29 01:36:11;;;;;;;9.55;2.47;;;11.50;99.90;;;;;;5074827;28;20032;-85
2023/05/29 01:38:36;;;;;;;6.22;1.58;;;11.40;99.90;;;;;;5058668;28;20025;-85
2023/05/29 01:41:03;;;;;;;9.05;2.13;;;11.40;99.90;;;;;;5074071;28;20428;-83
2023/05/29 01:43:30;;;;;;;7.05;1.45;;;11.40;99.90;;;;;;5061119;28;20386;-84
2023/05/29 01:45:55;;;;;;;7.10;2.00;;;11.40;99.90;;;;;;5073469;28;20024;-84
2023/05/29 01:48:22;;;;;;;9.00;1.92;;;11.30;99.90;;;;;;5058413;28;20037;-84
2023/05/29 01:50:48;;;;;;;6.22;1.42;;;11.30;99.90;;;;;;5059532;28;20111;-83
2023/05/29 01:53:15;;;;;;;7.88;1.50;;;11.30;99.90;;;;;;5064167;28;20115;-84
2023/05/29 01:55:40;;;;;;;7.68;1.67;;;11.30;99.90;;;;;;5062730;28;20031;-84
2023/05/29 01:58:07;;;;;;;9.27;1.80;;;11.30;99.90;;;;;;5058909;28;20036;-83
2023/05/29 02:00:33;;;;;;;9.75;2.35;;;11.20;99.90;;;;;;5075178;28;20608;-83
2023/05/29 02:02:58;;;;;;;9.18;1.85;;;11.20;99.90;;;;;;5064696;28;20032;-84
2023/05/29 02:05:24;;;;;;;8.48;1.50;;;11.20;99.90;;;;;;5074028;28;20139;-83
2023/05/29 02:07:49;;;;;;;8.95;1.67;;;11.10;99.90;;;;;;5072804;28;20415;-84
2023/05/29 02:10:15;;;;;;;6.32;1.50;;;11.10;99.90;;;;;;5058317;28;20512;-84
2023/05/29 02:12:40;;;;;;;9.00;1.77;;;11.10;99.90;;;;;;5063709;28;20103;-83
2023/05/29 02:15:07;;;;;;;8.85;2.00;;;11.10;99.90;;;;;;5063166;28;20048;-84
2023/05/29 02:17:33;;;;;;;9.95;2.47;;;11.10;99.90;;;;;;5061578;28;20167;-84
2023/05/29 02:19:59;;;;;;;7.38;1.70;;;11.00;99.90;;;;;;5073510;28;20116;-84
2023/05/29 02:22:25;;;;;;;8.15;2.00;;;11.00;99.90;;;;;;5072056;28;20045;-84
2023/05/29 02:24:50;;;;;;;7.63;2.00;;;10.90;99.90;;;;;;5072450;28;20031;-84
2023/05/29 02:27:16;;;;;;;11.18;2.70;;;10.90;99.90;;;;;;5074962;28;20407;-83
2023/05/29 02:29:41;;;;;;;8.93;1.95;;;10.90;99.90;;;;;;5059183;28;20420;-86
2023/05/29 02:32:07;;;;;;;11.18;2.50;;;10.80;99.90;;;;;;5073626;28;20054;-84
2023/05/29 02:34:33;;;;;;;8.85;1.80;;;10.80;99.90;;;;;;5057772;28;20085;-84
2023/05/29 02:36:58;;;;;;;7.32;2.38;;;10.80;99.90;;;;;;5063218;28;20073;-84
2023/05/29 02:39:24;;;;;;;8.40;2.05;;;10.70;99.90;;;;;;5061348;28;20367;-85
2023/05/29 02:41:49;;;;;;;9.50;2.45;;;10.70;99.90;;;;;;5073165;28;20054;-84
2023/05/29 02:44:15;;;;;;;10.10;2.25;;;10.70;99.90;;;;;;5074410;28;20020;-84
2023/05/29 02:46:40;;;;;;;8.90;2.25;;;10.70;99.90;;;;;;5072741;28;20032;-84
2023/05/29 02:49:06;;;;;;;9.57;2.30;;;10.60;99.90;;;;;;5072759;28;20074;-84
2023/05/29 02:51:35;;;;;;;7.82;1.80;;;10.60;99.90;;;;;;5062308;28;20020;-84
2023/05/29 02:54:00;;;;;;;11.60;2.10;;;10.60;99.90;;;;;;5057307;28;20062;-84
2023/05/29 02:56:26;;;;;;;9.18;1.85;;;10.60;99.90;;;;;;5057387;28;20504;-84
2023/05/29 02:58:51;;;;;;;10.60;2.63;;;10.60;99.90;;;;;;5063312;28;20066;-84
2023/05/29 03:01:17;;;;;;;7.68;2.03;;;10.60;99.90;;;;;;5073930;28;20103;-84
2023/05/29 03:03:43;;;;;;;9.35;1.85;;;10.60;99.90;;;;;;5056034;28;20447;-84
2023/05/29 03:06:09;;;;;;;10.82;2.20;;;10.50;99.90;;;;;;5056383;28;20035;-83
2023/05/29 03:08:39;;;;;;;7.25;2.03;;;10.50;99.90;;;;;;5061764;28;20047;-84
2023/05/29 03:11:07;;;;;;;8.68;2.13;;;10.50;99.90;;;;;;5073009;28;20020;-84
2023/05/29 03:13:34;;;;;;;7.60;2.03;;;10.50;99.90;;;;;;5074529;28;20490;-84
2023/05/29 03:15:59;;;;;;;7.22;1.42;;;10.40;99.90;;;;;;5072290;28;20035;-85
2023/05/29 03:18:25;;;;;;;7.38;1.23;;;10.40;99.90;;;;;;5062239;28;20028;-84
2023/05/29 03:20:51;;;;;;;7.63;1.40;;;10.40;99.90;;;;;;5071970;28;20024;-85
2023/05/29 03:23:16;;;;;;;6.47;2.17;;;10.40;99.90;;;;;;5061606;28;20066;-85
2023/05/29 03:25:42;;;;;;;7.60;2.15;;;10.30;99.90;;;;;;5074042;28;20509;-84
2023/05/29 03:28:08;;;;;;;10.65;1.85;;;10.30;99.90;;;;;;5063583;28;20035;-83
2023/05/29 03:30:33;;;;;;;9.63;1.75;;;10.30;99.90;;;;;;5062700;28;20020;-84
2023/05/29 03:33:03;;;;;;;9.95;1.80;;;10.30;99.90;;;;;;5072313;28;20361;-85
2023/05/29 03:35:29;;;;;;;11.50;1.88;;;10.30;99.90;;;;;;5061914;28;20039;-84
2023/05/29 03:37:55;;;;;;;8.82;1.95;;;10.20;99.90;;;;;;5073108;28;20132;-84
2023/05/29 03:40:20;;;;;;;10.40;2.47;;;10.20;99.90;;;;;;5065530;28;20568;-85
2023/05/29 03:42:46;;;;;;;7.97;1.73;;;10.20;99.90;;;;;;5057443;28;20439;-85
2023/05/29 03:45:12;;;;;;;10.48;2.65;;;10.10;99.90;;;;;;5073678;28;20028;-84
2023/05/29 03:47:37;;;;;;;11.48;2.28;;;10.20;99.90;;;;;;5055957;28;20079;-84
2023/05/29 03:50:03;;;;;;;8.52;2.10;;;10.20;99.90;;;;;;5065185;28;20058;-84
2023/05/29 03:52:29;;;;;;;9.45;2.05;;;10.10;99.90;;;;;;5060950;28;20032;-84
2023/05/29 03:54:54;;;;;;;7.45;2.03;;;10.10;99.90;;;;;;5062478;28;20032;-85
2023/05/29 03:57:20;;;;;;;8.55;1.80;;;10.10;99.90;;;;;;5076870;28;20047;-84
2023/05/29 03:59:45;;;;;;;8.75;2.25;;;10.10;99.90;;;;;;5077758;28;20021;-84
2023/05/29 04:02:11;;;;;;;9.15;2.05;;;10.10;99.90;;;;;;5076859;28;20032;-84
2023/05/29 04:04:36;;;;;;;8.88;2.00;;;10.20;99.90;;;;;;5076431;28;20063;-85
2023/05/29 04:07:02;;;;;;;10.65;2.22;;;10.20;99.90;;;;;;5075953;28;20422;-84
2023/05/29 04:09:28;;;;;;;9.65;2.00;;;10.20;99.90;;;;;;5076697;28;20101;-84
2023/05/29 04:11:55;;;;;;;5.20;1.70;;;10.20;99.90;;;;;;5077070;28;20103;-84
2023/05/29 04:14:20;;;;;;;8.82;1.83;;;10.20;99.90;;;;;;5077747;28;20032;-84
2023/05/29 04:16:46;;;;;;;8.98;2.15;;;10.30;99.90;;;;;;5058767;28;20024;-86
2023/05/29 04:19:11;;;;;;;7.53;2.33;;;10.30;99.90;;;;;;5060500;28;20042;-84
2023/05/29 04:21:37;;;;;;;10.32;1.65;;;10.30;99.90;;;;;;5076527;28;20127;-85
2023/05/29 04:24:03;;;;;;;13.38;2.28;;;10.40;99.90;;;;;;5075818;28;20052;-85
2023/05/29 04:26:28;;;;;;;10.43;1.80;;;10.40;99.90;;;;;;5062248;28;20057;-84
2023/05/29 04:28:57;;;;;;;7.80;1.77;;;10.40;99.90;;;;;;5060061;28;20040;-84
2023/05/29 04:31:26;;;;;;;8.20;1.80;;;10.40;99.90;;;;;;5065223;28;20017;-85
2023/05/29 04:33:54;;;;;;;10.48;2.00;;;10.50;99.90;;;;;;5061485;28;20102;-85
2023/05/29 04:36:27;;;;;;;9.50;2.25;;;10.50;99.90;;;;;;5057503;28;20048;-86
2023/05/29 04:38:53;;;;;;;8.82;2.17;;;10.50;99.90;;;;;;5065949;28;20028;-85
2023/05/29 04:41:23;;;;;;;12.07;2.78;;;10.40;99.90;;;;;;5066477;28;20506;-85
2023/05/29 04:43:49;;;;;;;10.52;2.10;;;10.40;99.90;;;;;;5074521;28;20441;-85
2023/05/29 04:46:15;;;;;;;10.32;2.20;;;10.40;99.90;;;;;;5076039;28;20473;-84
2023/05/29 04:48:40;;;;;;;6.75;1.65;;;10.50;99.90;;;;;;5075554;28;20040;-85
2023/05/29 04:51:12;;;;;;;10.52;2.00;;;10.50;99.90;;;;;;5065574;28;20027;-85
2023/05/29 04:53:40;;;;;;;8.88;1.80;;;10.50;99.90;;;;;;5075749;28;20121;-85
2023/05/29 04:56:06;;;;;;;12.57;1.80;;;10.50;99.90;;;;;;5060980;28;20027;-85
2023/05/29 04:58:32;;;;;;;11.18;1.98;;;10.50;99.90;;;;;;5073760;28;20032;-84
2023/05/29 05:00:57;;;;;;;10.45;2.10;;;10.60;99.90;;;;;;5074686;28;20153;-83
2023/05/29 05:03:25;;;;;;;15.73;3.05;;;10.60;99.90;;;;;;5059693;28;20039;-84
2023/05/29 05:05:51;;;;;;;9.90;2.63;;;10.60;99.90;;;;;;5074172;28;20028;-84
2023/05/29 05:08:17;;;;;;;8.50;2.20;;;10.60;99.90;;;;;;5060664;28;22123;-85
2023/05/29 05:10:43;;;;;;;10.90;1.83;;;10.60;99.90;;;;;;5077649;28;20024;-84
2023/05/29 05:13:08;;;;;;;10.50;2.20;;;10.60;99.90;;;;;;5064168;28;20074;-84
2023/05/29 05:15:34;;;;;;;12.20;2.10;;;10.70;99.90;;;;;;5059175;28;20441;-85
2023/05/29 05:18:00;;;;;;;5.43;1.55;;;10.70;99.90;;;;;;5074575;28;20070;-84
2023/05/29 05:20:25;;;;;;;9.27;2.13;;;10.70;99.90;;;;;;5074961;28;20154;-83
2023/05/29 05:22:51;;;;;;;8.32;2.15;;;10.80;99.90;;;;;;5060163;28;20178;-85
2023/05/29 05:25:17;;;;;;;11.50;2.72;;;10.80;99.90;;;;;;5060339;28;20123;-85
2023/05/29 05:27:43;;;;;;;9.13;2.85;;;10.80;99.90;;;;;;5074361;28;20036;-85
2023/05/29 05:30:09;;;;;;;11.70;2.30;;;10.80;99.90;;;;;;5063651;28;20056;-84
2023/05/29 05:32:34;;;;;;;8.63;2.40;;;10.80;99.90;;;;;;5075589;28;20051;-85
2023/05/29 05:35:00;;;;;;;7.97;2.03;;;10.90;99.90;;;;;;5074911;28;20025;-84
2023/05/29 05:37:26;;;;;;;6.63;1.77;;;10.90;99.90;;;;;;5074995;28;20016;-84
2023/05/29 05:39:53;;;;;;;8.48;1.42;;;11.00;99.90;;;;;;5064557;28;20016;-84
2023/05/29 05:42:19;;;;;;;9.02;1.73;;;11.00;99.90;;;;;;5058546;28;20020;-84
2023/05/29 05:44:45;;;;;;;8.27;2.13;;;11.10;99.90;;;;;;5063799;28;20095;-84
2023/05/29 05:47:11;;;;;;;6.65;1.58;;;11.10;99.90;;;;;;5064007;28;20151;-85
2023/05/29 05:49:36;;;;;;;8.63;1.50;;;11.10;99.90;;;;;;5058701;28;20473;-84
2023/05/29 05:52:02;;;;;;;6.72;1.40;;;11.20;99.90;;;;;;5073474;28;20680;-86
2023/05/29 05:54:27;;;;;;;8.73;1.50;;;11.20;99.90;;;;;;5059497;28;20036;-84
2023/05/29 05:56:53;;;;;;;8.75;2.00;;;11.30;99.90;;;;;;5064107;28;20021;-85
2023/05/29 05:59:18;;;;;;;8.13;1.60;;;11.40;99.90;;;;;;5058172;28;20031;-85
2023/05/29 06:01:44;;;;;;;6.95;1.30;;;11.40;99.90;;;;;;5057200;28;20025;-85
2023/05/29 06:04:09;;;;;;;8.02;1.33;;;11.50;99.90;;;;;;5055959;28;20040;-84
2023/05/29 06:06:35;;;;;;;5.05;1.40;;;11.60;99.90;;;;;;5058625;28;20028;-84
2023/05/29 06:09:01;;;;;;;7.57;1.83;;;11.60;99.90;;;;;;5063684;28;20093;-84
2023/05/29 06:11:26;;;;;;;8.50;1.83;;;11.70;99.90;;;;;;5058879;28;20492;-84
2023/05/29 06:13:52;;;;;;;7.25;1.80;;;11.70;99.90;;;;;;5060935;28;20520;-82
2023/05/29 06:16:18;;;;;;;8.48;1.85;;;11.80;99.90;;;;;;5062918;28;20020;-84
2023/05/29 06:18:44;;;;;;;7.43;1.92;;;11.80;99.90;;;;;;5064714;28;20051;-83
2023/05/29 06:21:11;;;;;;;7.80;1.67;;;11.80;99.90;;;;;;5057728;28;20051;-84
2023/05/29 06:23:37;;;;;;;8.60;1.77;;;11.90;99.90;;;;;;5074225;28;20049;-82
2023/05/29 06:26:03;;;;;;;7.03;1.80;;;11.90;99.90;;;;;;5076510;28;20028;-84
2023/05/29 06:28:29;;;;;;;5.45;1.60;;;12.00;99.90;;;;;;5057369;28;20024;-83
2023/05/29 06:30:55;;;;;;;9.38;1.88;;;12.00;99.90;;;;;;5065675;28;20116;-84
2023/05/29 06:33:21;;;;;;;10.02;2.00;;;12.00;99.90;;;;;;5063792;28;20032;-84
2023/05/29 06:35:47;;;;;;;6.68;1.40;;;12.00;99.90;;;;;;5072282;28;20069;-84
2023/05/29 06:38:14;;;;;;;9.23;1.80;;;12.00;99.90;;;;;;5062303;28;20494;-84
2023/05/29 06:40:40;;;;;;;8.10;2.10;;;12.10;99.90;;;;;;5073545;28;20032;-83
2023/05/29 06:43:05;;;;;;;8.40;1.65;;;12.20;99.90;;;;;;5073141;28;20200;-84
2023/05/29 06:45:31;;;;;;;7.18;1.80;;;12.20;99.90;;;;;;5072783;28;20123;-85
2023/05/29 06:47:56;;;;;;;6.75;1.55;;;12.30;99.90;;;;;;5062477;28;20047;-85
2023/05/29 06:50:22;;;;;;;7.97;1.50;;;12.30;99.90;;;;;;5062132;28;20539;-83
2023/05/29 06:52:48;;;;;;;8.65;1.67;;;12.40;99.90;;;;;;5074787;28;20016;-84
2023/05/29 06:55:13;;;;;;;7.88;1.85;;;12.40;99.90;;;;;;5059902;28;20023;-84
2023/05/29 06:57:39;;;;;;;6.07;1.60;;;12.50;99.90;;;;;;5062680;28;20016;-83
2023/05/29 07:00:06;;;;;;;8.63;1.70;;;12.50;99.90;;;;;;5071703;28;20021;-84
2023/05/29 07:02:32;;;;;;;9.18;1.30;;;12.50;99.90;;;;;;5057224;28;20553;-83
2023/05/29 07:04:58;;;;;;;8.98;1.70;;;12.50;99.90;;;;;;5056533;28;20036;-84
2023/05/29 07:07:24;;;;;;;8.35;2.17;;;12.60;99.90;;;;;;5073028;28;20486;-84
2023/05/29 07:09:49;;;;;;;9.85;2.35;;;12.60;99.90;;;;;;5072803;28;20036;-86
2023/05/29 07:12:15;;;;;;;8.80;1.92;;;12.70;99.90;;;;;;5074441;28;20146;-85
2023/05/29 07:14:40;;;;;;;7.45;1.52;;;12.70;99.90;;;;;;5073619;28;20439;-86
2023/05/29 07:17:06;;;;;;;10.85;1.90;;;12.80;99.90;;;;;;5073530;28;20103;-85
2023/05/29 07:19:34;;;;;;;7.03;1.70;;;12.80;99.90;;;;;;5057590;28;20031;-83
2023/05/29 07:22:00;;;;;;;8.10;1.90;;;12.90;99.90;;;;;;5072550;28;20079;-84
2023/05/29 07:24:26;;;;;;;9.38;1.60;;;13.00;99.90;;;;;;5063017;28;20059;-84
2023/05/29 07:26:52;;;;;;;6.57;1.52;;;13.00;99.90;;;;;;5056281;28;20023;-83
2023/05/29 07:29:20;;;;;;;8.88;1.60;;;13.00;99.90;;;;;;5063272;28;20041;-84
2023/05/29 07:31:46;;;;;;;4.82;1.48;;;13.10;99.90;;;;;;5072720;28;20094;-85
2023/05/29 07:34:12;;;;;;;8.05;1.65;;;13.10;99.90;;;;;;5057462;28;20055;-85
2023/05/29 07:37:06;;;;;;;11.30;1.83;;;13.20;99.90;;;;;;5062827;28;20164;-87
2023/05/29 07:39:36;;;;;;;10.15;2.20;;;13.30;99.90;;;;;;5062008;28;20149;-90
2023/05/29 07:42:03;;;;;;;6.22;1.65;;;13.30;99.90;;;;;;5058365;28;20066;-88
2023/05/29 07:44:28;;;;;;;9.27;2.17;;;13.40;99.90;;;;;;5066009;28;20347;-85
2023/05/29 07:46:54;;;;;;;7.97;1.73;;;13.40;99.90;;;;;;5068235;28;20054;-91
2023/05/29 07:49:20;;;;;;;6.90;1.50;;;13.50;99.90;;;;;;5068736;28;20081;-90
2023/05/29 07:51:46;;;;;;;9.27;1.50;;;13.60;99.90;;;;;;5076156;28;20125;-93
2023/05/29 07:54:12;;;;;;;7.82;2.05;;;13.60;99.90;;;;;;5065891;28;20029;-92
2023/05/29 07:56:38;;;;;;;7.65;1.95;;;13.70;99.90;;;;;;5063652;28;20024;-90
2023/05/29 07:59:05;;;;;;;7.35;1.83;;;13.80;99.90;;;;;;5067112;28;20654;-91
2023/05/29 08:01:31;;;;;;;9.02;2.13;;;13.80;99.90;;;;;;5064236;28;20016;-89
2023/05/29 08:03:56;;;;;;;9.43;1.75;;;13.90;99.90;;;;;;5059640;28;20035;-89
2023/05/29 08:06:22;;;;;;;5.75;1.50;;;13.90;99.90;;;;;;5076065;28;20365;-88
2023/05/29 08:08:47;;;;;;;7.93;1.55;;;14.00;99.90;;;;;;5066725;28;20398;-90
2023/05/29 08:11:13;;;;;;;5.97;1.70;;;14.20;99.90;;;;;;5065665;28;20441;-91
2023/05/29 08:13:39;;;;;;;5.10;1.42;;;14.30;99.90;;;;;;5063163;28;20040;-92
2023/05/29 08:16:05;;;;;;;5.88;1.30;;;14.30;99.90;;;;;;5067958;28;20165;-92
2023/05/29 08:18:34;;;;;;;7.22;1.80;;;14.40;99.90;;;;;;5077291;28;20440;-90
2023/05/29 08:21:00;;;;;;;8.82;1.70;;;14.50;99.90;;;;;;5064896;28;20009;-90
2023/05/29 08:23:31;;;;;;;8.32;1.65;;;14.60;99.90;;;;;;5067197;28;20060;-93
2023/05/29 08:25:57;;;;;;;7.15;1.60;;;14.70;99.90;;;;;;5065823;28;20113;-90
2023/05/29 08:28:22;;;;;;;8.90;1.75;;;14.90;99.90;;;;;;5074709;28;20116;-88
2023/05/29 08:30:48;;;;;;;6.55;1.60;;;14.90;99.90;;;;;;5055088;28;20016;-86
2023/05/29 08:33:13;;;;;;;7.03;1.80;;;15.00;99.90;;;;;;5057627;28;20032;-90
2023/05/29 08:35:39;;;;;;;5.47;1.42;;;15.00;99.90;;;;;;5064148;28;20091;-87
2023/05/29 08:38:05;;;;;;;6.32;1.83;;;15.10;99.90;;;;;;5066232;28;20419;-86
2023/05/29 08:40:30;;;;;;;6.47;1.48;;;15.20;99.90;;;;;;5061653;28;20106;-87
2023/05/29 08:42:59;;;;;;;5.68;1.67;;;15.30;99.90;;;;;;5076266;28;20078;-87
2023/05/29 08:45:25;;;;;;;8.25;2.03;;;15.40;99.90;;;;;;5065187;28;20144;-85
2023/05/29 08:47:53;;;;;;;7.03;1.83;;;15.50;99.90;;;;;;5065527;28;20060;-89
2023/05/29 08:50:20;;;;;;;7.43;1.60;;;15.40;99.90;;;;;;5066416;28;20116;-89
2023/05/29 08:52:46;;;;;;;10.10;1.95;;;15.50;99.90;;;;;;5066581;28;20601;-87
2023/05/29 08:55:12;;;;;;;6.85;1.67;;;15.60;99.90;;;;;;5061701;28;20031;-87
2023/05/29 08:57:39;;;;;;;6.22;1.35;;;15.70;99.90;;;;;;5067106;28;20465;-88
2023/05/29 09:00:29;;;;;;;7.57;1.65;;;15.80;99.90;;;;;;5060543;28;20028;-90
2023/05/29 09:02:55;;;;;;;8.60;2.00;;;15.90;99.90;;;;;;5062059;28;20024;-88
2023/05/29 09:05:21;;;;;;;4.55;1.25;;;16.20;99.90;;;;;;5059833;28;20203;-88
2023/05/29 09:07:49;;;;;;;4.88;1.20;;;16.40;99.90;;;;;;5060579;28;20062;-86
2023/05/29 09:10:15;;;;;;;6.72;1.38;;;16.60;99.90;;;;;;5075445;28;20043;-85
2023/05/29 09:12:41;;;;;;;6.35;1.63;;;16.80;99.90;;;;;;5075492;28;20367;-87
2023/05/29 09:15:27;;;;;;;5.72;1.45;;;16.90;99.90;;;;;;5060448;28;20047;-87
2023/05/29 09:17:55;;;;;;;6.90;2.20;;;17.10;99.90;;;;;;5065223;28;20139;-87
2023/05/29 09:20:24;;;;;;;6.53;1.70;;;17.20;99.90;;;;;;5060506;28;20043;-86
2023/05/29 09:22:57;;;;;;;6.68;1.48;;;17.20;99.90;;;;;;5075890;28;20375;-87
2023/05/29 09:25:26;;;;;;;5.43;1.25;;;17.40;99.90;;;;;;5067829;28;20359;-86
2023/05/29 09:27:58;;;;;;;6.30;1.35;;;17.50;99.90;;;;;;5075075;28;20149;-86
2023/05/29 09:30:41;;;;;;;6.38;1.40;;;17.70;99.90;;;;;;5075105;28;20024;-87
2023/05/29 09:33:09;;;;;;;6.47;1.88;;;18.40;99.90;;;;;;5074476;28;20033;-86
2023/05/29 09:35:36;;;;;;;5.80;1.35;;;19.00;99.90;;;;;;5077826;28;20028;-87
2023/05/29 09:38:02;;;;;;;6.82;2.10;;;19.60;99.90;;;;;;5061032;28;20047;-87
2023/05/29 09:40:37;;;;;;;7.05;1.65;;;20.20;99.50;;;;;;5060195;28;20477;-87
2023/05/29 09:43:13;;;;;;;5.40;1.50;;;20.70;98.80;;;;;;5063869;28;20494;-88
2023/05/29 09:45:43;;;;;;;5.78;1.50;;;21.20;98.60;;;;;;5062812;28;20024;-87
2023/05/29 09:48:14;;;;;;;4.90;1.70;;;21.70;98.20;;;;;;5063518;28;20024;-86
2023/05/29 09:50:40;;;;;;;7.47;1.70;;;22.10;97.80;;;;;;5064126;28;20072;-86
2023/05/29 09:53:28;;;;;;;6.95;1.88;;;22.20;97.20;;;;;;5076766;28;20020;-86
2023/05/29 09:55:55;;;;;;;8.15;1.75;;;22.50;96.80;;;;;;5058060;28;20119;-86
2023/05/29 09:58:22;;;;;;;8.10;1.80;;;22.60;96.70;;;;;;5059420;28;20029;-87
2023/05/29 10:00:49;;;;;;;6.15;1.88;;;22.70;96.50;;;;;;5062546;28;20035;-87
2023/05/29 10:03:16;;;;;;;7.15;1.52;;;22.80;96.10;;;;;;5068238;28;20028;-92
2023/05/29 10:05:43;;;;;;;4.30;1.45;;;22.70;95.70;;;;;;5076092;28;20037;-88
2023/05/29 10:08:12;;;;;;;6.70;1.60;;;22.70;95.80;;;;;;5059729;28;20465;-86
2023/05/29 10:10:42;;;;;;;5.55;1.65;;;22.80;95.70;;;;;;5074490;28;20638;-84
2023/05/29 10:13:11;;;;;;;6.85;1.80;;;23.20;95.50;;;;;;5056636;28;20020;-86
2023/05/29 10:15:39;;;;;;;8.30;2.08;;;23.40;94.50;;;;;;5074582;28;20070;-86
2023/05/29 10:18:13;;;;;;;5.63;1.55;;;23.30;93.90;;;;;;5059561;28;20461;-86
2023/05/29 10:20:40;;;;;;;5.13;1.30;;;23.20;93.80;;;;;;5059087;28;20032;-86
2023/05/29 10:23:07;;;;;;;4.05;1.42;;;23.20;93.80;;;;;;5074168;28;20052;-85
2023/05/29 10:25:35;;;;;;;7.22;1.50;;;23.30;93.60;;;;;;5057215;28;20052;-86
2023/05/29 10:28:02;;;;;;;6.40;1.73;;;23.50;93.30;;;;;;5063505;28;20028;-87
2023/05/29 10:30:52;;;;;;;5.57;1.75;;;23.70;92.80;;;;;;5074017;28;20033;-85
2023/05/29 10:33:18;;;;;;;6.20;1.45;;;24.00;92.40;;;;;;5074134;28;20016;-82
2023/05/29 10:35:47;;;;;;;5.60;1.77;;;24.30;92.30;;;;;;5074789;28;20051;-85
2023/05/29 10:38:18;;;;;;;5.28;1.75;;;24.70;92.10;;;;;;5074744;28;20545;-87
2023/05/29 10:40:44;;;;;;;6.57;1.70;;;24.90;91.40;;;;;;5063180;28;20078;-88
2023/05/29 10:43:30;;;;;;;6.80;1.60;;;24.80;90.70;;;;;;5073153;28;21118;-86
2023/05/29 10:45:56;;;;;;;7.57;1.70;;;24.80;90.20;;;;;;5072974;28;20016;-87
2023/05/29 10:48:28;;;;;;;5.45;1.58;;;24.60;90.00;;;;;;5059757;28;20504;-87
2023/05/29 10:50:55;;;;;;;6.27;1.73;;;24.50;90.00;;;;;;5059920;28;20036;-85
2023/05/29 10:53:26;;;;;;;5.55;1.75;;;24.40;90.10;;;;;;5063654;28;20046;-86
2023/05/29 10:55:52;;;;;;;7.10;1.70;;;24.30;89.70;;;;;;5072517;28;20096;-85
2023/05/29 10:58:19;;;;;;;5.18;1.25;;;24.20;89.30;;;;;;5059135;28;20031;-83
2023/05/29 11:00:46;;;;;;;6.03;1.88;;;24.10;89.30;;;;;;5062350;28;20028;-85
2023/05/29 11:03:21;;;;;;;10.10;1.90;;;24.10;89.20;;;;;;5062327;28;20020;-86
2023/05/29 11:06:10;;;;;;;4.50;1.70;;;24.00;88.80;;;;;;5077892;28;20469;-87
2023/05/29 11:08:41;;;;;;;7.47;1.98;;;24.20;88.90;;;;;;5072301;28;20429;-86
2023/05/29 11:11:11;;;;;;;5.25;1.60;;;24.40;88.50;;;;;;5057281;28;20020;-86
2023/05/29 11:13:37;;;;;;;6.05;1.90;;;24.50;88.40;;;;;;5066025;28;20043;-86
2023/05/29 11:16:25;;;;;;;4.53;1.65;;;24.50;87.60;;;;;;5061677;28;20035;-86
2023/05/29 11:18:52;;;;;;;6.30;1.83;;;24.60;87.50;;;;;;5057116;28;20370;-86
2023/05/29 11:21:36;;;;;;;5.03;1.70;;;24.40;86.90;;;;;;5061297;28;20107;-86
2023/05/29 11:24:03;;;;;;;5.45;1.58;;;24.50;86.70;;;;;;5072828;28;20032;-86
2023/05/29 11:26:30;;;;;;;5.07;1.88;;;24.40;86.60;;;;;;5057127;28;20135;-87
2023/05/29 11:29:00;;;;;;;6.72;1.83;;;24.40;85.70;;;;;;5056833;28;20055;-86
2023/05/29 11:31:28;;;;;;;7.90;2.05;;;24.40;85.00;;;;;;5062149;28;20297;-86
2023/05/29 11:33:58;;;;;;;5.57;1.83;;;24.60;85.60;;;;;;5073795;28;20425;-86
2023/05/29 11:36:25;;;;;;;6.55;2.03;;;24.90;85.60;;;;;;5075201;28;20476;-86
2023/05/29 11:38:51;;;;;;;4.22;1.75;;;25.20;84.10;;;;;;5072366;28;20125;-88
2023/05/29 11:41:18;;;;;;;6.35;1.40;;;25.20;84.20;;;;;;5071561;28;20028;-85
2023/05/29 11:43:43;;;;;;;6.22;1.70;;;25.50;83.90;;;;;;5057719;28;20663;-86
2023/05/29 11:46:20;;;;;;;5.30;1.67;;;25.40;83.20;;;;;;5071756;28;20123;-86
2023/05/29 11:48:48;;;;;;;6.80;1.80;;;25.30;82.90;;;;;;5074044;28;20036;-86
2023/05/29 11:51:15;;;;;;;7.90;1.90;;;25.10;83.50;;;;;;5059154;28;20550;-87
2023/05/29 11:53:46;;;;;;;6.35;1.90;;;25.20;82.80;;;;;;5056370;28;20036;-86
2023/05/29 11:56:12;;;;;;;5.15;2.00;;;25.00;82.60;;;;;;5060625;28;20028;-87
2023/05/29 11:58:42;;;;;;;7.43;2.35;;;24.90;82.30;;;;;;5057109;28;20493;-85
2023/05/29 12:01:08;;;;;;;6.40;1.65;;;24.80;82.60;;;;;;5061938;28;20078;-85
2023/05/29 12:03:41;;;;;;;5.35;1.65;;;24.70;82.80;;;;;;5072921;28;20035;-85
2023/05/29 12:06:08;;;;;;;8.30;1.77;;;24.70;82.20;;;;;;5058399;28;20036;-86
2023/05/29 12:08:35;;;;;;;5.22;1.65;;;24.60;82.10;;;;;;5055926;28;20035;-86
2023/05/29 12:11:00;;;;;;;5.47;1.73;;;24.60;82.10;;;;;;5055566;28;20123;-85
2023/05/29 12:13:26;;;;;;;7.88;2.38;;;24.70;82.30;;;;;;5075279;28;20112;-87
2023/05/29 12:15:55;;;;;;;6.53;1.75;;;24.80;81.80;;;;;;5060853;28;20020;-85
2023/05/29 12:18:21;;;;;;;7.85;2.30;;;24.80;81.20;;;;;;5062430;28;20024;-86
2023/05/29 12:20:46;;;;;;;6.78;1.98;;;25.00;81.10;;;;;;5062257;28;20363;-86
2023/05/29 12:23:12;;;;;;;8.90;2.20;;;25.10;80.90;;;;;;5065041;28;20123;-85
2023/05/29 12:25:38;;;;;;;5.78;1.80;;;25.10;80.70;;;;;;5058543;28;20111;-84
2023/05/29 12:28:04;;;;;;;6.55;1.77;;;25.20;80.60;;;;;;5059791;28;20028;-84
2023/05/29 12:30:30;;;;;;;6.03;1.73;;;25.40;80.60;;;;;;5065868;28;20027;-86
2023/05/29 12:32:56;;;;;;;5.57;1.90;;;25.60;79.90;;;;;;5065454;28;20111;-85
2023/05/29 12:35:28;;;;;;;4.15;1.80;;;25.70;80.10;;;;;;5060974;28;20561;-86
2023/05/29 12:37:59;;;;;;;5.10;1.70;;;25.80;79.90;;;;;;5068160;28;20020;-86
2023/05/29 12:40:27;;;;;;;7.35;1.70;;;25.60;79.40;;;;;;5059519;28;20023;-86
2023/05/29 12:42:56;;;;;;;5.47;2.13;;;25.60;79.30;;;;;;5058898;28;20482;-85
2023/05/29 12:45:28;;;;;;;6.75;2.13;;;25.50;79.10;;;;;;5060339;28;20028;-85
2023/05/29 12:48:01;;;;;;;6.10;2.10;;;25.40;78.10;;;;;;5057640;28;20455;-85